San Carlos, CA

8:48 AM PST on December 10, 2016 (GMT -0800)
San Carlos | | Change Station

Elev 3 ft 37.51 °N, 122.25 °W | Updated 54 minutes ago

Overcast
Overcast
59 °F
Feels Like 59 °F
N
6
Wind Variable Wind from SSW

Today
High -- | Low -- °F
--% Chance of Precip.
Yesterday
High -- | Low -- °F
Precip. -- in
Pressure 30.12 in
Visibility 7.0 miles
Clouds Scattered Clouds 2700 ft
Scattered Clouds 4500 ft
Dew Point 59 °F
Humidity 100%
Rainfall 0.02 in
Snow Depth Not available.
7:13 AM 4:50 PM
Waxing Gibbous, 85% visible
METAR KSQL 101554Z 20005KT 7SM SCT027 SCT045BKN055 15/15 A3012
Pressure 30.12 in
Visibility 7.0 miles
Clouds Scattered Clouds 2700 ft
Scattered Clouds 4500 ft
Dew Point 59 °F
Humidity 100%
Rainfall 0.02 in
Snow Depth Not available.
7:13 AM 4:50 PM
Waxing Gibbous, 85% visible
METAR KSQL 101554Z 20005KT 7SM SCT027 SCT045BKN055 15/15 A3012

10-Day Weather Forecast

Almanac

Astronomy

Dec. 10, 2016 Rise Set
Actual Time
Civil Twilight
Nautical Twilight
Astronomical Twilight
Moon
Length of Visible Light
Length of Day
Tomorrow will be .
, % of the Moon is Illuminated

Today's Extremes

State Highs State Lows

Community

WunderPhotos

Upload Photos

1,956,569 photos uploaded!

WunderBlog® & News

Nearby

Air Quality

  Air Quality AQ Index Pollutant
Not available.

Snow Depth

Station Depth Elevation

Earthquake Activity

City Distance Mag. Time & Date
Minimum magnitude displayed is 2.5.

Coastal Water Temperatures

Place Temperature

Stations

Nearby Weather Stations

Station Location Temp. Windchill Dew Point Humidity Wind Precip. Elev Updated Type
                   

Watches & Warnings

There are currently no watches in effect.